sensor_id;sensor_type;location;lat;lon;timestamp;pressure;altitude;pressure_sealevel;temperature;humidity
54270;BME280;40181;51.560;13.000;2023-05-03T00:01:07;101808.91;;;9.05;62.46
54270;BME280;40181;51.560;13.000;2023-05-03T00:03:36;101800.41;;;9.33;61.67
54270;BME280;40181;51.560;13.000;2023-05-03T00:06:09;101806.66;;;9.37;61.38
54270;BME280;40181;51.560;13.000;2023-05-03T00:08:39;101803.38;;;9.20;61.07
54270;BME280;40181;51.560;13.000;2023-05-03T00:11:11;101807.00;;;9.01;61.36
54270;BME280;40181;51.560;13.000;2023-05-03T00:13:41;101809.16;;;9.11;61.10
54270;BME280;40181;51.560;13.000;2023-05-03T00:16:10;101816.91;;;8.86;61.02
54270;BME280;40181;51.560;13.000;2023-05-03T00:18:39;101815.56;;;8.96;61.35
54270;BME280;40181;51.560;13.000;2023-05-03T00:21:09;101815.38;;;8.92;61.13
54270;BME280;40181;51.560;13.000;2023-05-03T00:23:38;101821.47;;;8.69;61.62
54270;BME280;40181;51.560;13.000;2023-05-03T00:26:07;101805.69;;;8.68;61.20
54270;BME280;40181;51.560;13.000;2023-05-03T00:28:38;101819.03;;;8.53;61.48
54270;BME280;40181;51.560;13.000;2023-05-03T00:31:08;101811.56;;;8.83;60.72
54270;BME280;40181;51.560;13.000;2023-05-03T00:33:38;101809.63;;;9.01;60.46
54270;BME280;40181;51.560;13.000;2023-05-03T00:36:08;101805.16;;;8.98;60.13
54270;BME280;40181;51.560;13.000;2023-05-03T00:38:38;101805.94;;;8.95;60.22
54270;BME280;40181;51.560;13.000;2023-05-03T00:41:09;101802.16;;;8.89;59.70
54270;BME280;40181;51.560;13.000;2023-05-03T00:43:41;101803.25;;;8.72;59.99
54270;BME280;40181;51.560;13.000;2023-05-03T00:46:10;101814.06;;;8.59;60.48
54270;BME280;40181;51.560;13.000;2023-05-03T00:48:39;101802.66;;;8.80;60.21
54270;BME280;40181;51.560;13.000;2023-05-03T00:51:10;101797.50;;;8.81;59.85
54270;BME280;40181;51.560;13.000;2023-05-03T00:53:42;101798.97;;;8.96;59.87
54270;BME280;40181;51.560;13.000;2023-05-03T00:56:14;101787.19;;;8.43;61.23
54270;BME280;40181;51.560;13.000;2023-05-03T00:58:50;101802.03;;;8.64;61.57
54270;BME280;40181;51.560;13.000;2023-05-03T01:01:19;101790.59;;;8.83;60.87
54270;BME280;40181;51.560;13.000;2023-05-03T01:03:49;101808.47;;;8.94;60.96
54270;BME280;40181;51.560;13.000;2023-05-03T01:06:24;101795.16;;;8.88;61.28
54270;BME280;40181;51.560;13.000;2023-05-03T01:09:02;101802.03;;;8.64;62.02
54270;BME280;40181;51.560;13.000;2023-05-03T01:11:37;101810.81;;;8.65;62.66
54270;BME280;40181;51.560;13.000;2023-05-03T01:14:19;101796.09;;;8.68;62.53
54270;BME280;40181;51.560;13.000;2023-05-03T01:17:01;101805.09;;;8.54;63.26
54270;BME280;40181;51.560;13.000;2023-05-03T01:19:35;101803.16;;;8.50;62.78
54270;BME280;40181;51.560;13.000;2023-05-03T01:22:13;101797.25;;;8.54;63.23
54270;BME280;40181;51.560;13.000;2023-05-03T01:24:46;101797.63;;;8.63;63.02
54270;BME280;40181;51.560;13.000;2023-05-03T01:27:21;101799.41;;;8.64;63.32
54270;BME280;40181;51.560;13.000;2023-05-03T01:29:51;101797.66;;;8.43;63.99
54270;BME280;40181;51.560;13.000;2023-05-03T01:32:26;101800.72;;;8.33;65.43
54270;BME280;40181;51.560;13.000;2023-05-03T01:35:03;101800.81;;;8.35;64.90
54270;BME280;40181;51.560;13.000;2023-05-03T01:37:45;101795.75;;;8.39;65.30
54270;BME280;40181;51.560;13.000;2023-05-03T01:40:14;101796.06;;;8.26;66.02
54270;BME280;40181;51.560;13.000;2023-05-03T01:42:49;101806.88;;;8.34;65.89
54270;BME280;40181;51.560;13.000;2023-05-03T01:45:19;101805.13;;;8.34;65.59
54270;BME280;40181;51.560;13.000;2023-05-03T01:47:48;101810.44;;;7.95;66.84
54270;BME280;40181;51.560;13.000;2023-05-03T01:50:17;101805.47;;;7.81;68.56
54270;BME280;40181;51.560;13.000;2023-05-03T01:52:48;101800.84;;;7.75;68.76
54270;BME280;40181;51.560;13.000;2023-05-03T01:55:18;101801.00;;;7.98;67.79
54270;BME280;40181;51.560;13.000;2023-05-03T01:57:49;101806.72;;;7.70;68.96
54270;BME280;40181;51.560;13.000;2023-05-03T02:00:18;101818.31;;;7.57;70.21
54270;BME280;40181;51.560;13.000;2023-05-03T02:02:48;101802.00;;;7.63;70.20
54270;BME280;40181;51.560;13.000;2023-05-03T02:05:17;101808.28;;;7.46;70.88
54270;BME280;40181;51.560;13.000;2023-05-03T02:07:46;101811.41;;;7.39;71.40
54270;BME280;40181;51.560;13.000;2023-05-03T02:10:15;101810.88;;;7.46;71.29
54270;BME280;40181;51.560;13.000;2023-05-03T02:12:44;101817.19;;;7.32;72.19
54270;BME280;40181;51.560;13.000;2023-05-03T02:15:16;101811.81;;;7.29;72.38
54270;BME280;40181;51.560;13.000;2023-05-03T02:17:46;101804.31;;;7.37;71.93
54270;BME280;40181;51.560;13.000;2023-05-03T02:20:18;101818.31;;;7.37;72.16
54270;BME280;40181;51.560;13.000;2023-05-03T02:22:47;101823.34;;;6.96;74.31
54270;BME280;40181;51.560;13.000;2023-05-03T02:25:16;101810.94;;;7.10;74.00
54270;BME280;40181;51.560;13.000;2023-05-03T02:27:45;101809.06;;;7.26;73.14
54270;BME280;40181;51.560;13.000;2023-05-03T02:30:17;101818.88;;;7.12;73.57
54270;BME280;40181;51.560;13.000;2023-05-03T02:32:46;101822.81;;;7.03;74.48
54270;BME280;40181;51.560;13.000;2023-05-03T02:35:15;101823.19;;;7.11;73.57
54270;BME280;40181;51.560;13.000;2023-05-03T02:37:45;101830.22;;;6.94;73.93
54270;BME280;40181;51.560;13.000;2023-05-03T02:40:14;101830.38;;;6.44;75.14
54270;BME280;40181;51.560;13.000;2023-05-03T02:42:43;101828.41;;;6.93;73.44
54270;BME280;40181;51.560;13.000;2023-05-03T02:45:12;101835.13;;;6.88;73.59
54270;BME280;40181;51.560;13.000;2023-05-03T02:47:44;101833.25;;;6.67;74.72
54270;BME280;40181;51.560;13.000;2023-05-03T02:50:13;101830.56;;;6.66;74.80
54270;BME280;40181;51.560;13.000;2023-05-03T02:52:42;101830.41;;;6.81;73.93
54270;BME280;40181;51.560;13.000;2023-05-03T02:55:11;101839.03;;;6.27;76.83
54270;BME280;40181;51.560;13.000;2023-05-03T02:57:40;101844.59;;;6.33;76.35
54270;BME280;40181;51.560;13.000;2023-05-03T03:00:11;101845.25;;;6.12;77.43
54270;BME280;40181;51.560;13.000;2023-05-03T03:02:44;101851.22;;;6.26;77.46
54270;BME280;40181;51.560;13.000;2023-05-03T03:05:13;101842.38;;;6.24;77.54
54270;BME280;40181;51.560;13.000;2023-05-03T03:07:42;101837.72;;;6.35;77.13
54270;BME280;40181;51.560;13.000;2023-05-03T03:10:11;101840.16;;;6.48;76.66
54270;BME280;40181;51.560;13.000;2023-05-03T03:12:41;101844.00;;;6.39;76.50
54270;BME280;40181;51.560;13.000;2023-05-03T03:15:10;101848.16;;;6.35;76.85
54270;BME280;40181;51.560;13.000;2023-05-03T03:17:40;101844.38;;;6.46;75.71
54270;BME280;40181;51.560;13.000;2023-05-03T03:20:11;101842.44;;;6.42;74.60
54270;BME280;40181;51.560;13.000;2023-05-03T03:22:40;101846.59;;;6.55;74.05
54270;BME280;40181;51.560;13.000;2023-05-03T03:25:11;101848.22;;;6.53;73.22
54270;BME280;40181;51.560;13.000;2023-05-03T03:27:40;101840.78;;;6.61;72.30
54270;BME280;40181;51.560;13.000;2023-05-03T03:30:10;101849.66;;;6.83;71.43
54270;BME280;40181;51.560;13.000;2023-05-03T03:32:39;101857.13;;;6.75;70.48
54270;BME280;40181;51.560;13.000;2023-05-03T03:35:11;101871.06;;;6.41;71.39
54270;BME280;40181;51.560;13.000;2023-05-03T03:37:41;101868.47;;;6.24;72.61
54270;BME280;40181;51.560;13.000;2023-05-03T03:40:11;101870.97;;;6.56;72.08
54270;BME280;40181;51.560;13.000;2023-05-03T03:42:40;101869.03;;;6.52;71.82
54270;BME280;40181;51.560;13.000;2023-05-03T03:45:10;101873.78;;;6.42;71.79
54270;BME280;40181;51.560;13.000;2023-05-03T03:47:39;101883.72;;;6.49;72.42
54270;BME280;40181;51.560;13.000;2023-05-03T03:50:11;101869.75;;;6.49;73.49
54270;BME280;40181;51.560;13.000;2023-05-03T03:52:40;101872.00;;;6.41;73.75
54270;BME280;40181;51.560;13.000;2023-05-03T03:55:10;101887.22;;;6.50;73.42
54270;BME280;40181;51.560;13.000;2023-05-03T03:57:39;101879.84;;;6.59;72.96
54270;BME280;40181;51.560;13.000;2023-05-03T04:00:09;101887.66;;;6.25;73.59
54270;BME280;40181;51.560;13.000;2023-05-03T04:02:39;101883.97;;;6.38;73.34
54270;BME280;40181;51.560;13.000;2023-05-03T04:05:11;101885.38;;;6.31;73.46
54270;BME280;40181;51.560;13.000;2023-05-03T04:07:41;101895.50;;;6.08;75.07
54270;BME280;40181;51.560;13.000;2023-05-03T04:10:10;101900.81;;;6.26;74.21
54270;BME280;40181;51.560;13.000;2023-05-03T04:12:39;101908.78;;;6.13;74.66
54270;BME280;40181;51.560;13.000;2023-05-03T04:15:10;101910.81;;;6.18;74.73
54270;BME280;40181;51.560;13.000;2023-05-03T04:17:39;101907.13;;;6.15;75.17
54270;BME280;40181;51.560;13.000;2023-05-03T04:20:12;101911.28;;;6.11;75.45
54270;BME280;40181;51.560;13.000;2023-05-03T04:22:42;101912.06;;;6.08;75.51
54270;BME280;40181;51.560;13.000;2023-05-03T04:25:11;101916.63;;;5.81;76.01
54270;BME280;40181;51.560;13.000;2023-05-03T04:27:41;101921.41;;;6.05;75.75
54270;BME280;40181;51.560;13.000;2023-05-03T04:30:12;101917.44;;;6.28;74.66
54270;BME280;40181;51.560;13.000;2023-05-03T04:32:41;101920.75;;;6.26;74.41
54270;BME280;40181;51.560;13.000;2023-05-03T04:35:14;101920.53;;;6.21;74.21
54270;BME280;40181;51.560;13.000;2023-05-03T04:37:43;101922.53;;;6.10;75.85
54270;BME280;40181;51.560;13.000;2023-05-03T04:40:12;101926.41;;;6.17;75.10
54270;BME280;40181;51.560;13.000;2023-05-03T04:42:43;101931.53;;;6.15;75.79
54270;BME280;40181;51.560;13.000;2023-05-03T04:45:13;101923.38;;;6.26;75.37
54270;BME280;40181;51.560;13.000;2023-05-03T04:47:43;101927.78;;;6.27;75.19
54270;BME280;40181;51.560;13.000;2023-05-03T04:50:15;101924.81;;;6.20;75.50
54270;BME280;40181;51.560;13.000;2023-05-03T04:52:44;101928.75;;;6.45;75.00
54270;BME280;40181;51.560;13.000;2023-05-03T04:55:13;101934.69;;;6.43;74.47
54270;BME280;40181;51.560;13.000;2023-05-03T04:57:42;101940.81;;;6.60;73.70
54270;BME280;40181;51.560;13.000;2023-05-03T05:00:12;101949.16;;;6.36;73.87
54270;BME280;40181;51.560;13.000;2023-05-03T05:02:41;101941.13;;;6.66;73.27
54270;BME280;40181;51.560;13.000;2023-05-03T05:05:13;101957.69;;;6.33;73.81
54270;BME280;40181;51.560;13.000;2023-05-03T05:07:42;101962.69;;;6.45;73.44
54270;BME280;40181;51.560;13.000;2023-05-03T05:10:12;101948.91;;;6.48;72.78
54270;BME280;40181;51.560;13.000;2023-05-03T05:12:41;101948.09;;;6.49;73.06
54270;BME280;40181;51.560;13.000;2023-05-03T05:15:10;101962.69;;;6.62;72.74
54270;BME280;40181;51.560;13.000;2023-05-03T05:17:40;101958.84;;;6.55;72.87
54270;BME280;40181;51.560;13.000;2023-05-03T05:20:10;101972.06;;;6.42;73.04
54270;BME280;40181;51.560;13.000;2023-05-03T05:22:42;101958.63;;;6.50;73.85
54270;BME280;40181;51.560;13.000;2023-05-03T05:25:11;101947.84;;;6.61;73.02
54270;BME280;40181;51.560;13.000;2023-05-03T05:27:40;101951.66;;;6.51;73.29
54270;BME280;40181;51.560;13.000;2023-05-03T05:30:09;101954.75;;;6.77;72.96
54270;BME280;40181;51.560;13.000;2023-05-03T05:32:39;101959.63;;;6.87;72.30
54270;BME280;40181;51.560;13.000;2023-05-03T05:35:08;101958.25;;;6.77;72.37
54270;BME280;40181;51.560;13.000;2023-05-03T05:37:40;101959.69;;;6.89;71.82
54270;BME280;40181;51.560;13.000;2023-05-03T05:40:10;101953.00;;;6.94;73.48
54270;BME280;40181;51.560;13.000;2023-05-03T05:42:39;101965.06;;;6.92;70.81
54270;BME280;40181;51.560;13.000;2023-05-03T05:45:10;101963.31;;;6.74;71.73
54270;BME280;40181;51.560;13.000;2023-05-03T05:47:39;101960.97;;;6.46;72.16
54270;BME280;40181;51.560;13.000;2023-05-03T05:50:09;101960.78;;;6.76;71.66
54270;BME280;40181;51.560;13.000;2023-05-03T05:52:41;101950.19;;;7.08;71.17
54270;BME280;40181;51.560;13.000;2023-05-03T05:55:10;101960.53;;;7.06;71.09
54270;BME280;40181;51.560;13.000;2023-05-03T05:57:40;101959.44;;;7.19;70.15
54270;BME280;40181;51.560;13.000;2023-05-03T06:00:10;101967.47;;;6.71;71.08
54270;BME280;40181;51.560;13.000;2023-05-03T06:02:41;101967.53;;;6.89;70.48
54270;BME280;40181;51.560;13.000;2023-05-03T06:05:11;101971.69;;;7.02;69.85
54270;BME280;40181;51.560;13.000;2023-05-03T06:07:43;101965.00;;;6.90;70.04
54270;BME280;40181;51.560;13.000;2023-05-03T06:10:12;101977.84;;;6.86;70.44
54270;BME280;40181;51.560;13.000;2023-05-03T06:12:41;101965.03;;;7.09;69.94
54270;BME280;40181;51.560;13.000;2023-05-03T06:15:10;101965.81;;;7.24;69.94
54270;BME280;40181;51.560;13.000;2023-05-03T06:17:39;101982.63;;;7.29;70.10
54270;BME280;40181;51.560;13.000;2023-05-03T06:20:08;101968.78;;;7.32;69.87
54270;BME280;40181;51.560;13.000;2023-05-03T06:22:38;101971.91;;;7.25;70.25
54270;BME280;40181;51.560;13.000;2023-05-03T06:25:10;101973.56;;;7.23;69.91
54270;BME280;40181;51.560;13.000;2023-05-03T06:27:40;101983.97;;;7.39;70.03
54270;BME280;40181;51.560;13.000;2023-05-03T06:30:10;101984.06;;;7.41;69.82
54270;BME280;40181;51.560;13.000;2023-05-03T06:32:40;101979.44;;;7.35;69.44
54270;BME280;40181;51.560;13.000;2023-05-03T06:35:09;101989.56;;;7.47;69.25
54270;BME280;40181;51.560;13.000;2023-05-03T06:37:40;101981.22;;;7.36;69.28
54270;BME280;40181;51.560;13.000;2023-05-03T06:40:12;101993.16;;;7.67;68.60
54270;BME280;40181;51.560;13.000;2023-05-03T06:42:42;101990.50;;;7.66;68.70
54270;BME280;40181;51.560;13.000;2023-05-03T06:45:11;101982.25;;;7.58;68.96
54270;BME280;40181;51.560;13.000;2023-05-03T06:47:40;101985.53;;;7.72;69.02
54270;BME280;40181;51.560;13.000;2023-05-03T06:50:09;101983.31;;;7.61;69.20
54270;BME280;40181;51.560;13.000;2023-05-03T06:52:38;101993.13;;;7.66;70.15
54270;BME280;40181;51.560;13.000;2023-05-03T06:55:08;101978.81;;;7.77;68.57
54270;BME280;40181;51.560;13.000;2023-05-03T06:57:40;101989.94;;;7.73;68.32
54270;BME280;40181;51.560;13.000;2023-05-03T07:00:12;101980.75;;;7.81;67.84
54270;BME280;40181;51.560;13.000;2023-05-03T07:02:42;101982.97;;;7.92;67.88
54270;BME280;40181;51.560;13.000;2023-05-03T07:05:11;101987.56;;;7.78;67.76
54270;BME280;40181;51.560;13.000;2023-05-03T07:07:40;101975.41;;;7.98;67.36
54270;BME280;40181;51.560;13.000;2023-05-03T07:10:13;101986.06;;;7.83;66.69
54270;BME280;40181;51.560;13.000;2023-05-03T07:12:42;101974.38;;;7.94;66.03
54270;BME280;40181;51.560;13.000;2023-05-03T07:15:11;101982.53;;;7.82;65.91
54270;BME280;40181;51.560;13.000;2023-05-03T07:17:40;101978.13;;;7.99;64.72
54270;BME280;40181;51.560;13.000;2023-05-03T07:20:10;101982.59;;;8.02;64.20
54270;BME280;40181;51.560;13.000;2023-05-03T07:22:39;101976.28;;;8.16;64.36
54270;BME280;40181;51.560;13.000;2023-05-03T07:25:08;101975.13;;;8.29;63.87
54270;BME280;40181;51.560;13.000;2023-05-03T07:27:41;101973.88;;;8.21;61.83
54270;BME280;40181;51.560;13.000;2023-05-03T07:30:11;101976.03;;;8.30;61.63
54270;BME280;40181;51.560;13.000;2023-05-03T07:32:40;101977.06;;;8.34;62.98
54270;BME280;40181;51.560;13.000;2023-05-03T07:35:10;101964.94;;;8.36;63.52
54270;BME280;40181;51.560;13.000;2023-05-03T07:37:39;101981.88;;;8.44;62.30
54270;BME280;40181;51.560;13.000;2023-05-03T07:40:09;101973.19;;;8.45;62.14
54270;BME280;40181;51.560;13.000;2023-05-03T07:42:41;101973.41;;;8.50;62.51
54270;BME280;40181;51.560;13.000;2023-05-03T07:45:11;101974.81;;;8.61;62.08
54270;BME280;40181;51.560;13.000;2023-05-03T07:47:40;101972.28;;;8.63;62.07
54270;BME280;40181;51.560;13.000;2023-05-03T07:50:09;101958.00;;;8.56;60.22
54270;BME280;40181;51.560;13.000;2023-05-03T07:52:38;101962.06;;;8.69;60.43
54270;BME280;40181;51.560;13.000;2023-05-03T07:55:08;101969.53;;;8.81;60.86
54270;BME280;40181;51.560;13.000;2023-05-03T07:57:37;101959.69;;;8.75;61.02
54270;BME280;40181;51.560;13.000;2023-05-03T08:00:10;101963.50;;;9.03;59.36
54270;BME280;40181;51.560;13.000;2023-05-03T08:02:42;101972.00;;;8.97;56.86
54270;BME280;40181;51.560;13.000;2023-05-03T08:05:11;101970.88;;;9.12;57.03
54270;BME280;40181;51.560;13.000;2023-05-03T08:07:40;101957.81;;;9.13;57.60
54270;BME280;40181;51.560;13.000;2023-05-03T08:10:10;101966.66;;;9.16;57.19
54270;BME280;40181;51.560;13.000;2023-05-03T08:12:42;101961.91;;;9.28;57.41
54270;BME280;40181;51.560;13.000;2023-05-03T08:15:12;101962.94;;;9.32;57.68
54270;BME280;40181;51.560;13.000;2023-05-03T08:17:42;101963.69;;;9.08;58.36
54270;BME280;40181;51.560;13.000;2023-05-03T08:20:12;101959.84;;;9.42;57.94
54270;BME280;40181;51.560;13.000;2023-05-03T08:22:41;101962.91;;;9.53;57.49
54270;BME280;40181;51.560;13.000;2023-05-03T08:25:10;101966.50;;;9.55;57.62
54270;BME280;40181;51.560;13.000;2023-05-03T08:27:43;101961.69;;;9.89;58.22
54270;BME280;40181;51.560;13.000;2023-05-03T08:30:13;101959.81;;;10.09;57.52
54270;BME280;40181;51.560;13.000;2023-05-03T08:32:43;101947.94;;;10.19;55.08
54270;BME280;40181;51.560;13.000;2023-05-03T08:35:12;101961.28;;;10.25;54.56
54270;BME280;40181;51.560;13.000;2023-05-03T08:37:42;101951.78;;;10.51;53.87
54270;BME280;40181;51.560;13.000;2023-05-03T08:40:12;101960.75;;;10.34;53.09
54270;BME280;40181;51.560;13.000;2023-05-03T08:42:44;101951.03;;;10.31;53.06
54270;BME280;40181;51.560;13.000;2023-05-03T08:45:14;101950.69;;;10.22;52.44
54270;BME280;40181;51.560;13.000;2023-05-03T08:47:44;101964.22;;;10.33;52.57
54270;BME280;40181;51.560;13.000;2023-05-03T08:50:14;101959.28;;;9.72;53.14
54270;BME280;40181;51.560;13.000;2023-05-03T08:52:43;101953.47;;;10.49;53.36
54270;BME280;40181;51.560;13.000;2023-05-03T08:55:12;101948.41;;;10.56;54.03
54270;BME280;40181;51.560;13.000;2023-05-03T08:57:44;101961.22;;;10.71;53.50
54270;BME280;40181;51.560;13.000;2023-05-03T09:00:14;101948.13;;;10.72;52.26
54270;BME280;40181;51.560;13.000;2023-05-03T09:02:45;101942.50;;;10.87;52.54
54270;BME280;40181;51.560;13.000;2023-05-03T09:05:32;101951.69;;;11.26;52.33
54270;BME280;40181;51.560;13.000;2023-05-03T09:08:04;101950.16;;;11.05;52.46
54270;BME280;40181;51.560;13.000;2023-05-03T09:10:37;101956.44;;;11.11;51.62
54270;BME280;40181;51.560;13.000;2023-05-03T09:13:09;101952.47;;;11.24;50.71
54270;BME280;40181;51.560;13.000;2023-05-03T09:15:38;101942.44;;;11.12;51.16
54270;BME280;40181;51.560;13.000;2023-05-03T09:18:12;101945.63;;;11.56;49.22
54270;BME280;40181;51.560;13.000;2023-05-03T09:20:43;101937.75;;;11.29;49.93
54270;BME280;40181;51.560;13.000;2023-05-03T09:23:16;101956.56;;;11.41;49.75
54270;BME280;40181;51.560;13.000;2023-05-03T09:25:48;101948.38;;;11.59;49.46
54270;BME280;40181;51.560;13.000;2023-05-03T09:28:20;101933.72;;;11.40;50.20
54270;BME280;40181;51.560;13.000;2023-05-03T09:31:03;101938.13;;;11.69;51.30
54270;BME280;40181;51.560;13.000;2023-05-03T09:33:33;101936.19;;;11.92;50.55
54270;BME280;40181;51.560;13.000;2023-05-03T09:36:04;101951.47;;;12.02;50.19
54270;BME280;40181;51.560;13.000;2023-05-03T09:38:34;101945.03;;;12.23;49.02
54270;BME280;40181;51.560;13.000;2023-05-03T09:41:04;101941.75;;;12.01;49.67
54270;BME280;40181;51.560;13.000;2023-05-03T09:43:47;101952.50;;;11.80;50.84
54270;BME280;40181;51.560;13.000;2023-05-03T09:46:17;101930.78;;;11.87;48.90
54270;BME280;40181;51.560;13.000;2023-05-03T09:48:49;101931.91;;;11.96;49.12
54270;BME280;40181;51.560;13.000;2023-05-03T09:51:21;101940.19;;;12.07;50.73
54270;BME280;40181;51.560;13.000;2023-05-03T09:53:52;101924.50;;;12.43;48.81
54270;BME280;40181;51.560;13.000;2023-05-03T09:56:23;101942.63;;;12.63;47.31
54270;BME280;40181;51.560;13.000;2023-05-03T09:58:56;101927.56;;;12.59;48.21
54270;BME280;40181;51.560;13.000;2023-05-03T10:01:25;101932.06;;;12.62;48.11
54270;BME280;40181;51.560;13.000;2023-05-03T10:03:56;101923.78;;;12.49;46.65
54270;BME280;40181;51.560;13.000;2023-05-03T10:06:30;101927.22;;;11.85;48.28
54270;BME280;40181;51.560;13.000;2023-05-03T10:09:05;101919.84;;;12.65;47.66
54270;BME280;40181;51.560;13.000;2023-05-03T10:11:43;101925.75;;;12.56;48.07
54270;BME280;40181;51.560;13.000;2023-05-03T10:14:19;101919.25;;;12.13;48.50
54270;BME280;40181;51.560;13.000;2023-05-03T10:16:55;101914.50;;;12.97;48.11
54270;BME280;40181;51.560;13.000;2023-05-03T10:19:32;101908.56;;;13.06;48.86
54270;BME280;40181;51.560;13.000;2023-05-03T10:22:04;101902.50;;;13.10;48.41
54270;BME280;40181;51.560;13.000;2023-05-03T10:24:35;101904.44;;;13.18;48.84
54270;BME280;40181;51.560;13.000;2023-05-03T10:27:06;101903.22;;;13.41;48.11
54270;BME280;40181;51.560;13.000;2023-05-03T10:29:46;101908.88;;;13.55;47.69
54270;BME280;40181;51.560;13.000;2023-05-03T10:32:31;101910.22;;;13.76;50.32
54270;BME280;40181;51.560;13.000;2023-05-03T10:35:07;101900.41;;;13.34;45.55
54270;BME280;40181;51.560;13.000;2023-05-03T10:37:41;101889.53;;;13.57;46.15
54270;BME280;40181;51.560;13.000;2023-05-03T10:40:12;101904.25;;;13.10;46.87
54270;BME280;40181;51.560;13.000;2023-05-03T10:42:43;101896.69;;;13.24;45.10
54270;BME280;40181;51.560;13.000;2023-05-03T10:45:24;101908.06;;;13.23;45.17
54270;BME280;40181;51.560;13.000;2023-05-03T10:48:17;101900.53;;;13.38;45.60
54270;BME280;40181;51.560;13.000;2023-05-03T10:50:50;101907.41;;;12.95;46.77
54270;BME280;40181;51.560;13.000;2023-05-03T10:53:38;101904.47;;;13.56;46.38
54270;BME280;40181;51.560;13.000;2023-05-03T10:56:10;101901.22;;;14.09;47.16
54270;BME280;40181;51.560;13.000;2023-05-03T10:58:41;101902.63;;;13.93;46.16
54270;BME280;40181;51.560;13.000;2023-05-03T11:01:15;101891.97;;;14.32;45.59
54270;BME280;40181;51.560;13.000;2023-05-03T11:03:50;101894.44;;;13.79;44.91
54270;BME280;40181;51.560;13.000;2023-05-03T11:06:29;101901.09;;;14.48;45.40
54270;BME280;40181;51.560;13.000;2023-05-03T11:09:01;101890.63;;;14.08;44.97
54270;BME280;40181;51.560;13.000;2023-05-03T11:11:30;101895.88;;;14.06;43.64
54270;BME280;40181;51.560;13.000;2023-05-03T11:14:00;101896.03;;;14.14;44.72
54270;BME280;40181;51.560;13.000;2023-05-03T11:16:31;101891.84;;;14.25;45.59
54270;BME280;40181;51.560;13.000;2023-05-03T11:19:01;101897.16;;;14.73;45.48
54270;BME280;40181;51.560;13.000;2023-05-03T11:21:31;101880.50;;;14.77;43.92
54270;BME280;40181;51.560;13.000;2023-05-03T11:24:00;101892.47;;;15.11;42.98
54270;BME280;40181;51.560;13.000;2023-05-03T11:26:34;101891.63;;;14.61;42.33
54270;BME280;40181;51.560;13.000;2023-05-03T11:29:03;101885.25;;;14.03;43.67
54270;BME280;40181;51.560;13.000;2023-05-03T11:31:35;101884.59;;;14.15;44.22
54270;BME280;40181;51.560;13.000;2023-05-03T11:34:07;101890.81;;;14.17;45.00
54270;BME280;40181;51.560;13.000;2023-05-03T11:36:36;101891.59;;;13.70;44.23
54270;BME280;40181;51.560;13.000;2023-05-03T11:39:06;101880.41;;;14.74;45.46
54270;BME280;40181;51.560;13.000;2023-05-03T11:41:35;101884.75;;;15.25;45.32
54270;BME280;40181;51.560;13.000;2023-05-03T11:44:06;101878.94;;;14.92;44.82
54270;BME280;40181;51.560;13.000;2023-05-03T11:46:38;101879.31;;;15.14;44.10
54270;BME280;40181;51.560;13.000;2023-05-03T11:49:08;101880.72;;;14.44;43.77
54270;BME280;40181;51.560;13.000;2023-05-03T11:51:37;101875.72;;;15.10;44.89
54270;BME280;40181;51.560;13.000;2023-05-03T11:54:08;101879.13;;;15.03;42.96
54270;BME280;40181;51.560;13.000;2023-05-03T11:56:38;101885.16;;;14.92;41.78
54270;BME280;40181;51.560;13.000;2023-05-03T11:59:07;101873.88;;;15.04;43.42
54270;BME280;40181;51.560;13.000;2023-05-03T12:01:40;101881.72;;;15.58;45.00
54270;BME280;40181;51.560;13.000;2023-05-03T12:04:13;101877.56;;;15.16;41.32
54270;BME280;40181;51.560;13.000;2023-05-03T12:06:42;101872.38;;;15.24;42.05
54270;BME280;40181;51.560;13.000;2023-05-03T12:09:16;101873.19;;;14.67;42.60
54270;BME280;40181;51.560;13.000;2023-05-03T12:11:48;101872.09;;;15.05;42.17
54270;BME280;40181;51.560;13.000;2023-05-03T12:14:17;101874.56;;;14.43;42.64
54270;BME280;40181;51.560;13.000;2023-05-03T12:16:51;101875.00;;;15.20;42.83
54270;BME280;40181;51.560;13.000;2023-05-03T12:19:24;101868.59;;;15.68;43.75
54270;BME280;40181;51.560;13.000;2023-05-03T12:21:53;101862.75;;;15.27;41.69
54270;BME280;40181;51.560;13.000;2023-05-03T12:24:23;101866.41;;;15.37;40.43
54270;BME280;40181;51.560;13.000;2023-05-03T12:26:52;101861.34;;;15.54;40.64
54270;BME280;40181;51.560;13.000;2023-05-03T12:29:21;101866.53;;;15.45;41.94
54270;BME280;40181;51.560;13.000;2023-05-03T12:31:54;101866.75;;;15.60;40.26
54270;BME280;40181;51.560;13.000;2023-05-03T12:34:27;101867.28;;;16.02;41.76
54270;BME280;40181;51.560;13.000;2023-05-03T12:36:56;101860.88;;;15.85;42.46
54270;BME280;40181;51.560;13.000;2023-05-03T12:39:27;101865.66;;;16.12;40.91
54270;BME280;40181;51.560;13.000;2023-05-03T12:41:56;101864.22;;;15.70;41.79
54270;BME280;40181;51.560;13.000;2023-05-03T12:44:25;101850.13;;;15.09;40.96
54270;BME280;40181;51.560;13.000;2023-05-03T12:46:56;101855.59;;;15.86;41.32
54270;BME280;40181;51.560;13.000;2023-05-03T12:49:25;101855.53;;;15.83;40.16
54270;BME280;40181;51.560;13.000;2023-05-03T12:51:54;101859.97;;;15.83;40.18
54270;BME280;40181;51.560;13.000;2023-05-03T12:54:25;101840.06;;;16.17;40.03
54270;BME280;40181;51.560;13.000;2023-05-03T12:56:54;101845.00;;;15.88;39.39
54270;BME280;40181;51.560;13.000;2023-05-03T12:59:24;101845.09;;;15.91;40.46
54270;BME280;40181;51.560;13.000;2023-05-03T13:01:55;101842.50;;;15.99;38.92
54270;BME280;40181;51.560;13.000;2023-05-03T13:04:25;101837.19;;;15.97;38.03